sensor_id;sensor_type;location;lat;lon;timestamp;P1;durP1;ratioP1;P2;durP2;ratioP2
14592;SDS011;7383;52.354;9.756;2023-06-14T00:01:51;1.85;;;1.75;;
14592;SDS011;7383;52.354;9.756;2023-06-14T00:04:19;1.83;;;1.73;;
14592;SDS011;7383;52.354;9.756;2023-06-14T00:06:46;2.45;;;2.05;;
14592;SDS011;7383;52.354;9.756;2023-06-14T00:09:13;2.00;;;1.75;;
14592;SDS011;7383;52.354;9.756;2023-06-14T00:11:42;1.90;;;1.80;;
14592;SDS011;7383;52.354;9.756;2023-06-14T00:14:09;2.13;;;2.03;;
14592;SDS011;7383;52.354;9.756;2023-06-14T00:16:36;1.98;;;1.85;;
14592;SDS011;7383;52.354;9.756;2023-06-14T00:19:04;1.92;;;1.80;;
14592;SDS011;7383;52.354;9.756;2023-06-14T00:21:32;2.08;;;1.98;;
14592;SDS011;7383;52.354;9.756;2023-06-14T00:24:00;2.40;;;1.85;;
14592;SDS011;7383;52.354;9.756;2023-06-14T00:26:27;2.05;;;1.95;;
14592;SDS011;7383;52.354;9.756;2023-06-14T00:28:53;2.00;;;1.80;;
14592;SDS011;7383;52.354;9.756;2023-06-14T00:31:21;1.90;;;1.80;;
14592;SDS011;7383;52.354;9.756;2023-06-14T00:33:48;2.00;;;1.90;;
14592;SDS011;7383;52.354;9.756;2023-06-14T00:36:17;2.20;;;2.00;;
14592;SDS011;7383;52.354;9.756;2023-06-14T00:38:45;2.33;;;2.13;;
14592;SDS011;7383;52.354;9.756;2023-06-14T00:41:11;1.90;;;1.80;;
14592;SDS011;7383;52.354;9.756;2023-06-14T00:43:38;2.03;;;1.92;;
14592;SDS011;7383;52.354;9.756;2023-06-14T00:46:06;1.77;;;1.67;;
14592;SDS011;7383;52.354;9.756;2023-06-14T00:48:33;2.53;;;1.88;;
14592;SDS011;7383;52.354;9.756;2023-06-14T00:51:02;2.40;;;2.20;;
14592;SDS011;7383;52.354;9.756;2023-06-14T00:53:29;2.00;;;1.90;;
14592;SDS011;7383;52.354;9.756;2023-06-14T00:56:00;1.95;;;1.85;;
14592;SDS011;7383;52.354;9.756;2023-06-14T00:58:26;1.90;;;1.80;;
14592;SDS011;7383;52.354;9.756;2023-06-14T01:00:54;1.95;;;1.85;;
14592;SDS011;7383;52.354;9.756;2023-06-14T01:03:21;2.00;;;1.90;;
14592;SDS011;7383;52.354;9.756;2023-06-14T01:05:48;2.05;;;1.95;;
14592;SDS011;7383;52.354;9.756;2023-06-14T01:08:22;2.00;;;1.90;;
14592;SDS011;7383;52.354;9.756;2023-06-14T01:11:01;1.85;;;1.75;;
14592;SDS011;7383;52.354;9.756;2023-06-14T01:13:34;2.10;;;2.00;;
14592;SDS011;7383;52.354;9.756;2023-06-14T01:16:03;2.00;;;1.90;;
14592;SDS011;7383;52.354;9.756;2023-06-14T01:18:32;1.90;;;1.80;;
14592;SDS011;7383;52.354;9.756;2023-06-14T01:21:00;1.95;;;1.85;;
14592;SDS011;7383;52.354;9.756;2023-06-14T01:23:32;2.15;;;1.95;;
14592;SDS011;7383;52.354;9.756;2023-06-14T01:25:59;2.00;;;1.80;;
14592;SDS011;7383;52.354;9.756;2023-06-14T01:28:28;1.92;;;1.80;;
14592;SDS011;7383;52.354;9.756;2023-06-14T01:30:57;1.85;;;1.75;;
14592;SDS011;7383;52.354;9.756;2023-06-14T01:33:29;1.90;;;1.80;;
14592;SDS011;7383;52.354;9.756;2023-06-14T01:35:57;1.92;;;1.83;;
14592;SDS011;7383;52.354;9.756;2023-06-14T01:38:24;1.60;;;1.50;;
14592;SDS011;7383;52.354;9.756;2023-06-14T01:40:54;1.88;;;1.77;;
14592;SDS011;7383;52.354;9.756;2023-06-14T01:43:24;1.98;;;1.88;;
14592;SDS011;7383;52.354;9.756;2023-06-14T01:45:51;1.60;;;1.50;;
14592;SDS011;7383;52.354;9.756;2023-06-14T01:48:20;2.00;;;1.90;;
14592;SDS011;7383;52.354;9.756;2023-06-14T01:50:47;2.58;;;1.90;;
14592;SDS011;7383;52.354;9.756;2023-06-14T01:53:14;1.73;;;1.63;;
14592;SDS011;7383;52.354;9.756;2023-06-14T01:55:41;1.92;;;1.83;;
14592;SDS011;7383;52.354;9.756;2023-06-14T01:58:15;1.90;;;1.80;;
14592;SDS011;7383;52.354;9.756;2023-06-14T02:00:42;1.92;;;1.70;;
14592;SDS011;7383;52.354;9.756;2023-06-14T02:03:10;1.83;;;1.73;;
14592;SDS011;7383;52.354;9.756;2023-06-14T02:05:38;1.65;;;1.55;;
14592;SDS011;7383;52.354;9.756;2023-06-14T02:08:04;1.70;;;1.60;;
14592;SDS011;7383;52.354;9.756;2023-06-14T02:10:31;1.98;;;1.88;;
14592;SDS011;7383;52.354;9.756;2023-06-14T02:12:59;1.83;;;1.73;;
14592;SDS011;7383;52.354;9.756;2023-06-14T02:15:26;1.88;;;1.77;;
14592;SDS011;7383;52.354;9.756;2023-06-14T02:17:58;1.80;;;1.52;;
14592;SDS011;7383;52.354;9.756;2023-06-14T02:20:25;1.85;;;1.75;;
14592;SDS011;7383;52.354;9.756;2023-06-14T02:22:52;1.67;;;1.58;;
14592;SDS011;7383;52.354;9.756;2023-06-14T02:25:19;1.83;;;1.63;;
14592;SDS011;7383;52.354;9.756;2023-06-14T02:27:45;1.60;;;1.58;;
14592;SDS011;7383;52.354;9.756;2023-06-14T02:30:12;2.13;;;1.85;;
14592;SDS011;7383;52.354;9.756;2023-06-14T02:32:43;1.80;;;1.70;;
14592;SDS011;7383;52.354;9.756;2023-06-14T02:35:10;2.15;;;1.92;;
14592;SDS011;7383;52.354;9.756;2023-06-14T02:37:38;1.70;;;1.60;;
14592;SDS011;7383;52.354;9.756;2023-06-14T02:40:05;1.65;;;1.55;;
14592;SDS011;7383;52.354;9.756;2023-06-14T02:42:34;2.08;;;1.98;;
14592;SDS011;7383;52.354;9.756;2023-06-14T02:45:00;1.70;;;1.65;;
14592;SDS011;7383;52.354;9.756;2023-06-14T02:47:28;1.85;;;1.67;;
14592;SDS011;7383;52.354;9.756;2023-06-14T02:49:56;2.03;;;1.92;;
14592;SDS011;7383;52.354;9.756;2023-06-14T02:52:22;1.75;;;1.65;;
14592;SDS011;7383;52.354;9.756;2023-06-14T02:54:50;1.92;;;1.70;;
14592;SDS011;7383;52.354;9.756;2023-06-14T02:57:17;1.85;;;1.75;;
14592;SDS011;7383;52.354;9.756;2023-06-14T02:59:43;1.80;;;1.70;;
14592;SDS011;7383;52.354;9.756;2023-06-14T03:02:10;1.92;;;1.70;;
14592;SDS011;7383;52.354;9.756;2023-06-14T03:04:36;1.73;;;1.63;;
14592;SDS011;7383;52.354;9.756;2023-06-14T03:07:05;1.90;;;1.80;;
14592;SDS011;7383;52.354;9.756;2023-06-14T03:09:34;1.90;;;1.80;;
14592;SDS011;7383;52.354;9.756;2023-06-14T03:12:00;1.77;;;1.67;;
14592;SDS011;7383;52.354;9.756;2023-06-14T03:14:27;1.50;;;1.40;;
14592;SDS011;7383;52.354;9.756;2023-06-14T03:16:54;1.90;;;1.80;;
14592;SDS011;7383;52.354;9.756;2023-06-14T03:19:22;1.77;;;1.67;;
14592;SDS011;7383;52.354;9.756;2023-06-14T03:21:48;1.92;;;1.83;;
14592;SDS011;7383;52.354;9.756;2023-06-14T03:24:16;2.03;;;1.85;;
14592;SDS011;7383;52.354;9.756;2023-06-14T03:26:43;2.00;;;1.80;;
14592;SDS011;7383;52.354;9.756;2023-06-14T03:29:09;1.98;;;1.88;;
14592;SDS011;7383;52.354;9.756;2023-06-14T03:31:41;1.92;;;1.83;;
14592;SDS011;7383;52.354;9.756;2023-06-14T03:34:23;1.98;;;1.88;;
14592;SDS011;7383;52.354;9.756;2023-06-14T03:36:49;2.13;;;1.92;;
14592;SDS011;7383;52.354;9.756;2023-06-14T03:39:17;2.22;;;2.03;;
14592;SDS011;7383;52.354;9.756;2023-06-14T03:41:44;2.17;;;1.85;;
14592;SDS011;7383;52.354;9.756;2023-06-14T03:44:10;2.30;;;2.10;;
14592;SDS011;7383;52.354;9.756;2023-06-14T03:46:37;2.38;;;1.98;;
14592;SDS011;7383;52.354;9.756;2023-06-14T03:49:04;1.95;;;1.75;;
14592;SDS011;7383;52.354;9.756;2023-06-14T03:51:31;2.65;;;1.88;;
14592;SDS011;7383;52.354;9.756;2023-06-14T03:54:00;2.15;;;2.00;;
14592;SDS011;7383;52.354;9.756;2023-06-14T03:56:28;1.90;;;1.80;;
14592;SDS011;7383;52.354;9.756;2023-06-14T03:58:54;1.85;;;1.63;;
14592;SDS011;7383;52.354;9.756;2023-06-14T04:01:21;3.33;;;2.15;;
14592;SDS011;7383;52.354;9.756;2023-06-14T04:03:54;2.83;;;1.80;;
14592;SDS011;7383;52.354;9.756;2023-06-14T04:06:21;2.05;;;1.88;;
14592;SDS011;7383;52.354;9.756;2023-06-14T04:08:50;1.85;;;1.65;;
14592;SDS011;7383;52.354;9.756;2023-06-14T04:11:17;1.70;;;1.60;;
14592;SDS011;7383;52.354;9.756;2023-06-14T04:13:46;2.20;;;2.00;;
14592;SDS011;7383;52.354;9.756;2023-06-14T04:16:12;2.53;;;1.90;;
14592;SDS011;7383;52.354;9.756;2023-06-14T04:18:39;2.17;;;1.92;;
14592;SDS011;7383;52.354;9.756;2023-06-14T04:21:05;2.22;;;2.03;;
14592;SDS011;7383;52.354;9.756;2023-06-14T04:23:33;1.83;;;1.73;;
14592;SDS011;7383;52.354;9.756;2023-06-14T04:26:00;3.75;;;2.08;;
14592;SDS011;7383;52.354;9.756;2023-06-14T04:28:28;2.00;;;1.90;;
14592;SDS011;7383;52.354;9.756;2023-06-14T04:30:56;1.85;;;1.75;;
14592;SDS011;7383;52.354;9.756;2023-06-14T04:33:26;3.47;;;1.85;;
14592;SDS011;7383;52.354;9.756;2023-06-14T04:35:53;1.90;;;1.80;;
14592;SDS011;7383;52.354;9.756;2023-06-14T04:38:21;2.25;;;1.85;;
14592;SDS011;7383;52.354;9.756;2023-06-14T04:40:50;1.70;;;1.60;;
14592;SDS011;7383;52.354;9.756;2023-06-14T04:43:17;1.40;;;1.33;;
14592;SDS011;7383;52.354;9.756;2023-06-14T04:45:52;1.65;;;1.55;;
14592;SDS011;7383;52.354;9.756;2023-06-14T04:48:21;2.08;;;1.75;;
14592;SDS011;7383;52.354;9.756;2023-06-14T04:50:47;2.33;;;1.73;;
14592;SDS011;7383;52.354;9.756;2023-06-14T04:53:17;1.85;;;1.70;;
14592;SDS011;7383;52.354;9.756;2023-06-14T04:55:47;1.80;;;1.70;;
14592;SDS011;7383;52.354;9.756;2023-06-14T04:58:15;1.60;;;1.50;;
14592;SDS011;7383;52.354;9.756;2023-06-14T05:00:42;2.00;;;1.90;;
14592;SDS011;7383;52.354;9.756;2023-06-14T05:03:09;1.92;;;1.58;;
14592;SDS011;7383;52.354;9.756;2023-06-14T05:05:39;1.85;;;1.75;;
14592;SDS011;7383;52.354;9.756;2023-06-14T05:08:06;1.55;;;1.55;;
14592;SDS011;7383;52.354;9.756;2023-06-14T05:10:33;2.25;;;1.70;;
14592;SDS011;7383;52.354;9.756;2023-06-14T05:13:01;1.67;;;1.58;;
14592;SDS011;7383;52.354;9.756;2023-06-14T05:15:27;1.70;;;1.60;;
14592;SDS011;7383;52.354;9.756;2023-06-14T05:17:54;1.80;;;1.70;;
14592;SDS011;7383;52.354;9.756;2023-06-14T05:20:20;1.80;;;1.60;;
14592;SDS011;7383;52.354;9.756;2023-06-14T05:22:51;1.77;;;1.60;;
14592;SDS011;7383;52.354;9.756;2023-06-14T05:25:18;1.60;;;1.50;;
14592;SDS011;7383;52.354;9.756;2023-06-14T05:27:45;2.75;;;1.75;;
14592;SDS011;7383;52.354;9.756;2023-06-14T05:30:12;1.73;;;1.60;;
14592;SDS011;7383;52.354;9.756;2023-06-14T05:32:39;1.60;;;1.50;;
14592;SDS011;7383;52.354;9.756;2023-06-14T05:35:07;1.70;;;1.60;;
14592;SDS011;7383;52.354;9.756;2023-06-14T05:37:34;1.50;;;1.40;;
14592;SDS011;7383;52.354;9.756;2023-06-14T05:40:01;1.33;;;1.30;;
14592;SDS011;7383;52.354;9.756;2023-06-14T05:42:30;2.05;;;1.67;;
14592;SDS011;7383;52.354;9.756;2023-06-14T05:44:57;1.70;;;1.60;;
14592;SDS011;7383;52.354;9.756;2023-06-14T05:47:23;1.60;;;1.48;;
14592;SDS011;7383;52.354;9.756;2023-06-14T05:49:50;1.38;;;1.27;;
14592;SDS011;7383;52.354;9.756;2023-06-14T05:52:17;1.35;;;1.25;;
14592;SDS011;7383;52.354;9.756;2023-06-14T05:54:43;1.70;;;1.60;;
14592;SDS011;7383;52.354;9.756;2023-06-14T05:57:11;1.88;;;1.55;;
14592;SDS011;7383;52.354;9.756;2023-06-14T05:59:38;1.40;;;1.35;;
14592;SDS011;7383;52.354;9.756;2023-06-14T06:02:05;1.30;;;1.30;;
14592;SDS011;7383;52.354;9.756;2023-06-14T06:04:31;1.40;;;1.30;;
14592;SDS011;7383;52.354;9.756;2023-06-14T06:06:59;1.40;;;1.40;;
14592;SDS011;7383;52.354;9.756;2023-06-14T06:09:26;1.50;;;1.40;;
14592;SDS011;7383;52.354;9.756;2023-06-14T06:11:52;1.50;;;1.40;;
14592;SDS011;7383;52.354;9.756;2023-06-14T06:14:20;1.33;;;1.33;;
14592;SDS011;7383;52.354;9.756;2023-06-14T06:16:46;1.55;;;1.50;;
14592;SDS011;7383;52.354;9.756;2023-06-14T06:19:13;1.55;;;1.45;;
14592;SDS011;7383;52.354;9.756;2023-06-14T06:21:40;1.58;;;1.48;;
14592;SDS011;7383;52.354;9.756;2023-06-14T06:24:06;1.80;;;1.70;;
14592;SDS011;7383;52.354;9.756;2023-06-14T06:26:34;1.55;;;1.50;;
14592;SDS011;7383;52.354;9.756;2023-06-14T06:29:01;2.40;;;1.77;;
14592;SDS011;7383;52.354;9.756;2023-06-14T06:31:29;1.92;;;1.83;;
14592;SDS011;7383;52.354;9.756;2023-06-14T06:33:56;1.70;;;1.60;;
14592;SDS011;7383;52.354;9.756;2023-06-14T06:36:23;1.60;;;1.50;;
14592;SDS011;7383;52.354;9.756;2023-06-14T06:38:50;1.52;;;1.42;;
14592;SDS011;7383;52.354;9.756;2023-06-14T06:41:18;1.60;;;1.52;;
14592;SDS011;7383;52.354;9.756;2023-06-14T06:43:46;1.75;;;1.65;;
14592;SDS011;7383;52.354;9.756;2023-06-14T06:46:13;1.88;;;1.77;;
14592;SDS011;7383;52.354;9.756;2023-06-14T06:48:41;1.33;;;1.30;;
14592;SDS011;7383;52.354;9.756;2023-06-14T06:51:07;1.60;;;1.50;;
14592;SDS011;7383;52.354;9.756;2023-06-14T06:53:33;1.30;;;1.30;;
14592;SDS011;7383;52.354;9.756;2023-06-14T06:56:00;1.40;;;1.40;;
14592;SDS011;7383;52.354;9.756;2023-06-14T06:58:26;1.40;;;1.33;;
14592;SDS011;7383;52.354;9.756;2023-06-14T07:00:53;1.50;;;1.40;;
14592;SDS011;7383;52.354;9.756;2023-06-14T07:03:19;1.92;;;1.50;;
14592;SDS011;7383;52.354;9.756;2023-06-14T07:05:47;1.63;;;1.52;;
14592;SDS011;7383;52.354;9.756;2023-06-14T07:08:13;1.40;;;1.40;;
14592;SDS011;7383;52.354;9.756;2023-06-14T07:10:40;2.00;;;1.40;;
14592;SDS011;7383;52.354;9.756;2023-06-14T07:13:06;1.10;;;1.10;;
14592;SDS011;7383;52.354;9.756;2023-06-14T07:15:33;1.15;;;1.15;;
14592;SDS011;7383;52.354;9.756;2023-06-14T07:18:00;1.33;;;1.25;;
14592;SDS011;7383;52.354;9.756;2023-06-14T07:20:26;1.60;;;1.50;;
14592;SDS011;7383;52.354;9.756;2023-06-14T07:22:54;1.73;;;1.63;;
14592;SDS011;7383;52.354;9.756;2023-06-14T07:25:21;1.65;;;1.55;;
14592;SDS011;7383;52.354;9.756;2023-06-14T07:27:48;1.23;;;1.13;;
14592;SDS011;7383;52.354;9.756;2023-06-14T07:30:16;1.60;;;1.50;;
14592;SDS011;7383;52.354;9.756;2023-06-14T07:32:43;1.58;;;1.50;;
14592;SDS011;7383;52.354;9.756;2023-06-14T07:35:09;1.20;;;1.20;;
14592;SDS011;7383;52.354;9.756;2023-06-14T07:37:37;1.50;;;1.50;;
14592;SDS011;7383;52.354;9.756;2023-06-14T07:40:05;1.27;;;1.27;;
14592;SDS011;7383;52.354;9.756;2023-06-14T07:42:33;2.03;;;1.45;;
14592;SDS011;7383;52.354;9.756;2023-06-14T07:45:01;1.55;;;1.30;;
14592;SDS011;7383;52.354;9.756;2023-06-14T07:47:27;1.45;;;1.35;;
14592;SDS011;7383;52.354;9.756;2023-06-14T07:49:54;1.52;;;1.42;;
14592;SDS011;7383;52.354;9.756;2023-06-14T07:52:21;1.48;;;1.40;;
14592;SDS011;7383;52.354;9.756;2023-06-14T07:54:49;1.50;;;1.35;;
14592;SDS011;7383;52.354;9.756;2023-06-14T07:57:19;1.38;;;1.30;;
14592;SDS011;7383;52.354;9.756;2023-06-14T07:59:46;1.17;;;1.13;;
14592;SDS011;7383;52.354;9.756;2023-06-14T08:02:14;1.30;;;1.30;;
14592;SDS011;7383;52.354;9.756;2023-06-14T08:04:40;1.20;;;1.20;;
14592;SDS011;7383;52.354;9.756;2023-06-14T08:07:07;1.10;;;1.10;;
14592;SDS011;7383;52.354;9.756;2023-06-14T08:09:34;1.38;;;1.30;;
14592;SDS011;7383;52.354;9.756;2023-06-14T08:12:03;1.38;;;1.30;;
14592;SDS011;7383;52.354;9.756;2023-06-14T08:14:33;1.08;;;1.08;;
14592;SDS011;7383;52.354;9.756;2023-06-14T08:17:00;1.20;;;1.17;;
14592;SDS011;7383;52.354;9.756;2023-06-14T08:19:26;1.20;;;1.20;;
14592;SDS011;7383;52.354;9.756;2023-06-14T08:21:53;1.55;;;1.45;;
14592;SDS011;7383;52.354;9.756;2023-06-14T08:24:20;1.25;;;1.25;;
14592;SDS011;7383;52.354;9.756;2023-06-14T08:26:49;1.15;;;1.05;;
14592;SDS011;7383;52.354;9.756;2023-06-14T08:29:16;1.35;;;1.30;;
14592;SDS011;7383;52.354;9.756;2023-06-14T08:31:44;1.40;;;1.40;;
14592;SDS011;7383;52.354;9.756;2023-06-14T08:34:11;1.05;;;1.05;;
14592;SDS011;7383;52.354;9.756;2023-06-14T08:36:39;1.25;;;1.23;;
14592;SDS011;7383;52.354;9.756;2023-06-14T08:39:06;1.40;;;1.30;;
14592;SDS011;7383;52.354;9.756;2023-06-14T08:41:33;1.55;;;1.30;;
14592;SDS011;7383;52.354;9.756;2023-06-14T08:44:01;1.48;;;1.45;;
14592;SDS011;7383;52.354;9.756;2023-06-14T08:46:28;1.25;;;1.25;;
14592;SDS011;7383;52.354;9.756;2023-06-14T08:49:01;1.50;;;1.40;;
14592;SDS011;7383;52.354;9.756;2023-06-14T08:51:30;1.65;;;1.58;;
14592;SDS011;7383;52.354;9.756;2023-06-14T08:53:59;1.90;;;1.67;;
14592;SDS011;7383;52.354;9.756;2023-06-14T08:56:27;1.50;;;1.40;;
14592;SDS011;7383;52.354;9.756;2023-06-14T08:58:54;1.95;;;1.60;;
14592;SDS011;7383;52.354;9.756;2023-06-14T09:01:21;1.25;;;1.25;;
14592;SDS011;7383;52.354;9.756;2023-06-14T09:03:48;1.35;;;1.35;;
14592;SDS011;7383;52.354;9.756;2023-06-14T09:06:16;2.13;;;1.58;;
14592;SDS011;7383;52.354;9.756;2023-06-14T09:08:43;1.38;;;1.38;;
14592;SDS011;7383;52.354;9.756;2023-06-14T09:11:12;1.98;;;1.60;;
14592;SDS011;7383;52.354;9.756;2023-06-14T09:13:40;1.40;;;1.38;;
14592;SDS011;7383;52.354;9.756;2023-06-14T09:16:08;1.80;;;1.70;;
14592;SDS011;7383;52.354;9.756;2023-06-14T09:18:35;1.77;;;1.67;;
14592;SDS011;7383;52.354;9.756;2023-06-14T09:21:03;1.98;;;1.88;;
14592;SDS011;7383;52.354;9.756;2023-06-14T09:23:34;1.55;;;1.45;;
14592;SDS011;7383;52.354;9.756;2023-06-14T09:26:07;1.35;;;1.30;;
14592;SDS011;7383;52.354;9.756;2023-06-14T09:28:34;1.30;;;1.30;;
14592;SDS011;7383;52.354;9.756;2023-06-14T09:31:01;1.50;;;1.40;;
14592;SDS011;7383;52.354;9.756;2023-06-14T09:33:28;1.70;;;1.42;;
14592;SDS011;7383;52.354;9.756;2023-06-14T09:35:55;1.98;;;1.70;;
14592;SDS011;7383;52.354;9.756;2023-06-14T09:38:21;1.30;;;1.30;;
14592;SDS011;7383;52.354;9.756;2023-06-14T09:40:50;1.20;;;1.20;;
14592;SDS011;7383;52.354;9.756;2023-06-14T09:43:17;1.42;;;1.42;;
14592;SDS011;7383;52.354;9.756;2023-06-14T09:45:44;1.30;;;1.30;;
14592;SDS011;7383;52.354;9.756;2023-06-14T09:48:13;1.10;;;1.10;;
14592;SDS011;7383;52.354;9.756;2023-06-14T09:50:43;1.20;;;1.20;;
14592;SDS011;7383;52.354;9.756;2023-06-14T09:53:11;1.50;;;1.40;;
14592;SDS011;7383;52.354;9.756;2023-06-14T09:55:38;1.33;;;1.33;;
14592;SDS011;7383;52.354;9.756;2023-06-14T09:58:09;1.40;;;1.40;;
14592;SDS011;7383;52.354;9.756;2023-06-14T10:00:36;1.65;;;1.55;;
14592;SDS011;7383;52.354;9.756;2023-06-14T10:03:06;1.30;;;1.30;;
14592;SDS011;7383;52.354;9.756;2023-06-14T10:05:39;1.20;;;1.20;;
14592;SDS011;7383;52.354;9.756;2023-06-14T10:08:08;1.55;;;1.50;;
14592;SDS011;7383;52.354;9.756;2023-06-14T10:10:37;1.45;;;1.23;;
14592;SDS011;7383;52.354;9.756;2023-06-14T10:13:05;1.67;;;1.60;;
14592;SDS011;7383;52.354;9.756;2023-06-14T10:15:35;1.30;;;1.30;;
14592;SDS011;7383;52.354;9.756;2023-06-14T10:18:09;1.33;;;1.33;;
14592;SDS011;7383;52.354;9.756;2023-06-14T10:20:48;1.58;;;1.48;;
14592;SDS011;7383;52.354;9.756;2023-06-14T10:23:21;1.65;;;1.55;;
14592;SDS011;7383;52.354;9.756;2023-06-14T10:25:54;1.50;;;1.50;;
14592;SDS011;7383;52.354;9.756;2023-06-14T10:28:22;1.80;;;1.70;;
14592;SDS011;7383;52.354;9.756;2023-06-14T10:31:06;1.75;;;1.65;;
14592;SDS011;7383;52.354;9.756;2023-06-14T10:33:35;1.88;;;1.30;;
14592;SDS011;7383;52.354;9.756;2023-06-14T10:38:57;1.45;;;1.45;;
14592;SDS011;7383;52.354;9.756;2023-06-14T10:41:25;1.67;;;1.58;;
14592;SDS011;7383;52.354;9.756;2023-06-14T10:44:02;1.52;;;1.52;;
14592;SDS011;7383;52.354;9.756;2023-06-14T10:46:40;1.80;;;1.70;;
14592;SDS011;7383;52.354;9.756;2023-06-14T10:49:06;1.90;;;1.80;;
14592;SDS011;7383;52.354;9.756;2023-06-14T10:51:37;1.58;;;1.58;;
14592;SDS011;7383;52.354;9.756;2023-06-14T10:54:11;2.47;;;1.77;;
14592;SDS011;7383;52.354;9.756;2023-06-14T10:56:38;1.55;;;1.50;;
14592;SDS011;7383;52.354;9.756;2023-06-14T10:59:11;1.92;;;1.75;;
14592;SDS011;7383;52.354;9.756;2023-06-14T11:01:40;1.67;;;1.58;;
14592;SDS011;7383;52.354;9.756;2023-06-14T11:04:15;1.83;;;1.73;;
14592;SDS011;7383;52.354;9.756;2023-06-14T11:06:46;1.92;;;1.83;;
14592;SDS011;7383;52.354;9.756;2023-06-14T11:09:25;1.70;;;1.60;;
14592;SDS011;7383;52.354;9.756;2023-06-14T11:12:10;1.92;;;1.83;;
14592;SDS011;7383;52.354;9.756;2023-06-14T11:14:36;1.70;;;1.60;;
14592;SDS011;7383;52.354;9.756;2023-06-14T11:17:06;1.90;;;1.80;;
14592;SDS011;7383;52.354;9.756;2023-06-14T11:19:32;5.63;;;2.00;;
14592;SDS011;7383;52.354;9.756;2023-06-14T11:21:59;1.90;;;1.80;;
14592;SDS011;7383;52.354;9.756;2023-06-14T11:24:26;1.80;;;1.70;;
14592;SDS011;7383;52.354;9.756;2023-06-14T11:26:52;1.95;;;1.85;;
14592;SDS011;7383;52.354;9.756;2023-06-14T11:29:19;1.73;;;1.63;;
14592;SDS011;7383;52.354;9.756;2023-06-14T11:31:46;2.15;;;2.05;;
14592;SDS011;7383;52.354;9.756;2023-06-14T11:34:14;1.90;;;1.80;;
14592;SDS011;7383;52.354;9.756;2023-06-14T11:36:41;1.95;;;1.85;;
14592;SDS011;7383;52.354;9.756;2023-06-14T11:39:08;2.25;;;2.10;;
14592;SDS011;7383;52.354;9.756;2023-06-14T11:41:36;1.98;;;1.88;;
14592;SDS011;7383;52.354;9.756;2023-06-14T11:44:03;1.80;;;1.70;;
14592;SDS011;7383;52.354;9.756;2023-06-14T11:46:31;2.00;;;1.90;;
14592;SDS011;7383;52.354;9.756;2023-06-14T11:48:57;1.90;;;1.80;;
14592;SDS011;7383;52.354;9.756;2023-06-14T11:51:25;2.20;;;2.10;;
14592;SDS011;7383;52.354;9.756;2023-06-14T11:53:52;3.08;;;1.98;;
14592;SDS011;7383;52.354;9.756;2023-06-14T11:56:19;2.40;;;2.15;;
14592;SDS011;7383;52.354;9.756;2023-06-14T11:58:45;1.83;;;1.73;;
14592;SDS011;7383;52.354;9.756;2023-06-14T12:01:14;2.17;;;2.08;;
14592;SDS011;7383;52.354;9.756;2023-06-14T12:03:46;2.08;;;1.98;;
14592;SDS011;7383;52.354;9.756;2023-06-14T12:06:13;2.05;;;1.95;;
14592;SDS011;7383;52.354;9.756;2023-06-14T12:08:42;1.77;;;1.67;;
14592;SDS011;7383;52.354;9.756;2023-06-14T12:11:10;2.70;;;2.28;;
14592;SDS011;7383;52.354;9.756;2023-06-14T12:13:38;2.00;;;1.90;;
14592;SDS011;7383;52.354;9.756;2023-06-14T12:16:06;1.73;;;1.63;;
14592;SDS011;7383;52.354;9.756;2023-06-14T12:18:33;2.15;;;2.05;;
14592;SDS011;7383;52.354;9.756;2023-06-14T12:21:00;1.88;;;1.70;;
14592;SDS011;7383;52.354;9.756;2023-06-14T12:23:38;2.00;;;1.90;;
14592;SDS011;7383;52.354;9.756;2023-06-14T12:26:06;2.00;;;1.90;;
14592;SDS011;7383;52.354;9.756;2023-06-14T12:28:33;2.00;;;1.90;;
14592;SDS011;7383;52.354;9.756;2023-06-14T12:30:59;2.20;;;2.10;;
14592;SDS011;7383;52.354;9.756;2023-06-14T12:33:25;2.15;;;2.05;;
14592;SDS011;7383;52.354;9.756;2023-06-14T12:35:53;2.10;;;2.00;;
14592;SDS011;7383;52.354;9.756;2023-06-14T12:38:21;2.10;;;2.00;;
14592;SDS011;7383;52.354;9.756;2023-06-14T12:40:48;2.25;;;2.15;;
14592;SDS011;7383;52.354;9.756;2023-06-14T12:43:15;2.08;;;1.88;;
14592;SDS011;7383;52.354;9.756;2023-06-14T12:45:42;2.33;;;2.05;;
14592;SDS011;7383;52.354;9.756;2023-06-14T12:48:09;2.03;;;1.92;;
14592;SDS011;7383;52.354;9.756;2023-06-14T12:50:35;2.28;;;2.17;;
14592;SDS011;7383;52.354;9.756;2023-06-14T12:53:02;2.42;;;2.20;;
14592;SDS011;7383;52.354;9.756;2023-06-14T12:55:28;2.30;;;2.20;;
14592;SDS011;7383;52.354;9.756;2023-06-14T12:57:55;2.25;;;2.10;;
14592;SDS011;7383;52.354;9.756;2023-06-14T13:00:22;2.53;;;2.42;;
14592;SDS011;7383;52.354;9.756;2023-06-14T13:02:50;2.35;;;2.15;;
14592;SDS011;7383;52.354;9.756;2023-06-14T13:05:17;2.50;;;2.30;;
14592;SDS011;7383;52.354;9.756;2023-06-14T13:07:43;2.35;;;2.13;;
14592;SDS011;7383;52.354;9.756;2023-06-14T13:10:10;2.47;;;2.30;;
14592;SDS011;7383;52.354;9.756;2023-06-14T13:12:37;2.22;;;2.13;;
14592;SDS011;7383;52.354;9.756;2023-06-14T13:15:03;2.30;;;2.20;;
14592;SDS011;7383;52.354;9.756;2023-06-14T13:17:33;2.28;;;2.17;;
14592;SDS011;7383;52.354;9.756;2023-06-14T13:20:03;2.10;;;2.00;;
14592;SDS011;7383;52.354;9.756;2023-06-14T13:22:30;2.45;;;2.35;;
14592;SDS011;7383;52.354;9.756;2023-06-14T13:24:56;2.33;;;2.20;;
14592;SDS011;7383;52.354;9.756;2023-06-14T13:27:23;2.40;;;2.25;;
14592;SDS011;7383;52.354;9.756;2023-06-14T13:29:49;2.10;;;2.00;;
14592;SDS011;7383;52.354;9.756;2023-06-14T13:32:16;2.30;;;2.20;;
14592;SDS011;7383;52.354;9.756;2023-06-14T13:34:43;2.53;;;2.42;;
14592;SDS011;7383;52.354;9.756;2023-06-14T13:37:10;2.30;;;2.20;;
14592;SDS011;7383;52.354;9.756;2023-06-14T13:39:36;2.45;;;2.25;;
14592;SDS011;7383;52.354;9.756;2023-06-14T13:42:03;2.63;;;2.42;;
14592;SDS011;7383;52.354;9.756;2023-06-14T13:44:30;2.40;;;2.30;;
14592;SDS011;7383;52.354;9.756;2023-06-14T13:46:56;2.20;;;2.03;;
14592;SDS011;7383;52.354;9.756;2023-06-14T13:49:23;2.58;;;2.40;;
14592;SDS011;7383;52.354;9.756;2023-06-14T13:51:50;2.35;;;2.17;;
14592;SDS011;7383;52.354;9.756;2023-06-14T13:54:19;2.40;;;2.20;;
14592;SDS011;7383;52.354;9.756;2023-06-14T13:56:46;2.70;;;2.50;;
14592;SDS011;7383;52.354;9.756;2023-06-14T13:59:12;2.40;;;2.30;;
14592;SDS011;7383;52.354;9.756;2023-06-14T14:01:39;2.47;;;2.30;;
14592;SDS011;7383;52.354;9.756;2023-06-14T14:04:06;2.28;;;2.17;;
14592;SDS011;7383;52.354;9.756;2023-06-14T14:06:34;2.33;;;2.22;;
14592;SDS011;7383;52.354;9.756;2023-06-14T14:09:04;2.60;;;2.40;;
14592;SDS011;7383;52.354;9.756;2023-06-14T14:11:30;2.10;;;2.00;;
14592;SDS011;7383;52.354;9.756;2023-06-14T14:14:10;2.30;;;2.20;;
14592;SDS011;7383;52.354;9.756;2023-06-14T14:16:36;2.75;;;2.47;;
14592;SDS011;7383;52.354;9.756;2023-06-14T14:19:03;2.47;;;2.30;;
14592;SDS011;7383;52.354;9.756;2023-06-14T14:21:30;2.20;;;2.10;;
14592;SDS011;7383;52.354;9.756;2023-06-14T14:23:57;2.50;;;2.30;;
14592;SDS011;7383;52.354;9.756;2023-06-14T14:26:25;2.22;;;2.13;;
14592;SDS011;7383;52.354;9.756;2023-06-14T14:28:52;2.15;;;1.95;;
14592;SDS011;7383;52.354;9.756;2023-06-14T14:31:18;2.30;;;2.17;;
14592;SDS011;7383;52.354;9.756;2023-06-14T14:33:45;2.30;;;2.20;;
14592;SDS011;7383;52.354;9.756;2023-06-14T14:36:14;2.38;;;2.10;;
14592;SDS011;7383;52.354;9.756;2023-06-14T14:38:41;2.20;;;2.10;;
14592;SDS011;7383;52.354;9.756;2023-06-14T14:41:07;2.30;;;2.20;;
14592;SDS011;7383;52.354;9.756;2023-06-14T14:43:35;2.47;;;2.30;;
14592;SDS011;7383;52.354;9.756;2023-06-14T14:46:01;2.10;;;2.00;;
14592;SDS011;7383;52.354;9.756;2023-06-14T14:48:28;2.03;;;1.92;;
14592;SDS011;7383;52.354;9.756;2023-06-14T14:50:54;2.10;;;2.00;;
14592;SDS011;7383;52.354;9.756;2023-06-14T14:53:21;2.50;;;2.30;;
14592;SDS011;7383;52.354;9.756;2023-06-14T14:55:47;2.20;;;2.10;;
14592;SDS011;7383;52.354;9.756;2023-06-14T14:58:20;2.58;;;2.38;;
14592;SDS011;7383;52.354;9.756;2023-06-14T15:00:51;3.30;;;3.00;;
14592;SDS011;7383;52.354;9.756;2023-06-14T15:03:17;2.65;;;2.53;;
14592;SDS011;7383;52.354;9.756;2023-06-14T15:05:46;2.75;;;2.47;;
14592;SDS011;7383;52.354;9.756;2023-06-14T15:08:13;2.53;;;2.33;;